KABR/ABR METAR and TAF weather

Enter ICAO airport designator
Station Type Date Time Source
KABR METAR 2024/04/18 07:53 UTC NOAA

KABR 180753Z AUTO 29014KT 10SM CLR 04/M03 A3005 RMK AO2 SLP182 T00391028


Station Type Date Time Source
KABR Decoded METAR 2024/04/18 07:53 UTC NOAA

ABERDEEN REGIONAL AIRPORT, SD, United States (KABR) 45-27N 098-25W 400M
Apr 18, 2024 - 03:53 AM EDT / 2024.04.18 0753 UTC
Wind: from the WNW (290 degrees) at 16 MPH (14 KT):0
Visibility: 10 mile(s):0
Sky conditions: clear
Temperature: 39.0 F (3.9 C)
Dew Point: 27.0 F (-2.8 C)
Relative Humidity: 61%
Pressure (altimeter): 30.05 in. Hg (1017 hPa)
ob: KABR 180753Z AUTO 29014KT 10SM CLR 04/M03 A3005 RMK AO2 SLP182 T00391028
cycle: 8

Station Type Date Time Source
KABR TAF 2024/04/18 06:22 UTC NOAA